Time;durP1;ratioP1;P1;durP2;ratioP2;P2;SDS_P1;SDS_P2;PMS_P1;PMS_P2;Temp;Humidity;BMP_temperature;BMP_pressure;BME280_temperature;BME280_humidity;BME280_pressure;Samples;Min_cycle;Max_cycle;Signal;HPM_P1;HPM_P2
2022/09/30 00:01:20;;;;;;;20.02;14.30;;;13.50;99.90;;;;;;5051510;28;20210;-59
2022/09/30 00:03:48;;;;;;;22.73;13.25;;;13.50;99.90;;;;;;5033764;28;20230;-59
2022/09/30 00:06:14;;;;;;;20.42;14.10;;;13.40;99.90;;;;;;5052224;28;20302;-58
2022/09/30 00:08:40;;;;;;;22.35;13.75;;;13.30;99.90;;;;;;5051691;28;20183;-58
2022/09/30 00:11:10;;;;;;;21.23;14.10;;;13.30;99.90;;;;;;5052491;28;20213;-59
2022/09/30 00:13:37;;;;;;;25.67;13.40;;;13.20;99.90;;;;;;5051638;28;20323;-59
2022/09/30 00:16:03;;;;;;;23.23;16.35;;;13.20;99.90;;;;;;5045906;28;20711;-59
2022/09/30 00:18:30;;;;;;;25.20;18.77;;;13.20;99.90;;;;;;5052054;28;20229;-59
2022/09/30 00:20:55;;;;;;;26.42;20.10;;;13.10;99.90;;;;;;5051405;28;20673;-59
2022/09/30 00:23:22;;;;;;;29.30;21.10;;;13.10;99.90;;;;;;5052264;28;20223;-58
2022/09/30 00:25:49;;;;;;;21.10;13.60;;;13.10;99.90;;;;;;5044156;28;20179;-65
2022/09/30 00:28:16;;;;;;;27.23;20.20;;;13.00;99.90;;;;;;5049531;28;20192;-64
2022/09/30 00:30:42;;;;;;;26.30;18.10;;;13.00;99.90;;;;;;5052109;28;20175;-59
2022/09/30 00:33:08;;;;;;;28.80;20.42;;;12.90;99.90;;;;;;5034515;28;20179;-58
2022/09/30 00:35:35;;;;;;;26.80;19.23;;;12.90;99.90;;;;;;5049600;28;20260;-59
2022/09/30 00:38:01;;;;;;;24.02;18.85;;;12.90;99.90;;;;;;5047784;28;20172;-59
2022/09/30 00:40:29;;;;;;;25.10;19.38;;;12.80;99.90;;;;;;5037793;28;20526;-59
2022/09/30 00:42:55;;;;;;;24.70;19.15;;;12.90;99.90;;;;;;5076128;28;20202;-56
2022/09/30 00:45:22;;;;;;;26.55;20.60;;;12.90;99.90;;;;;;5066354;28;20184;-60
2022/09/30 00:47:55;;;;;;;25.42;20.38;;;12.90;99.90;;;;;;5037627;28;20179;-59
2022/09/30 00:50:30;;;;;;;25.42;20.30;;;12.80;99.90;;;;;;5055539;28;20233;-57
2022/09/30 00:53:14;;;;;;;34.72;21.13;;;12.80;99.90;;;;;;5035645;28;20184;-58
2022/09/30 00:55:49;;;;;;;28.02;21.05;;;12.80;99.90;;;;;;5048019;28;20163;-58
2022/09/30 00:58:21;;;;;;;23.73;19.20;;;12.70;99.90;;;;;;5049411;28;20610;-58
2022/09/30 01:00:50;;;;;;;24.65;19.38;;;12.70;99.90;;;;;;5055135;28;20258;-60
2022/09/30 01:03:17;;;;;;;24.33;19.58;;;12.70;99.90;;;;;;5054687;28;20258;-58
2022/09/30 01:05:43;;;;;;;26.77;19.10;;;12.70;99.90;;;;;;5054977;28;20175;-58
2022/09/30 01:08:09;;;;;;;24.42;19.60;;;12.70;99.90;;;;;;5039154;28;20199;-58
2022/09/30 01:10:36;;;;;;;23.70;19.20;;;12.70;99.90;;;;;;5047110;28;20270;-58
2022/09/30 01:13:03;;;;;;;22.63;18.77;;;12.70;99.90;;;;;;5054703;28;20556;-58
2022/09/30 01:15:46;;;;;;;25.08;18.75;;;12.70;99.90;;;;;;5054498;28;20604;-57
2022/09/30 01:18:41;;;;;;;24.42;17.85;;;12.60;99.90;;;;;;5028309;28;20184;-58
2022/09/30 01:21:21;;;;;;;24.15;17.58;;;12.70;99.90;;;;;;5034226;28;20196;-58
2022/09/30 01:24:13;;;;;;;23.23;18.60;;;12.60;99.90;;;;;;5053953;28;20179;-60
2022/09/30 01:26:49;;;;;;;23.10;17.95;;;12.60;99.90;;;;;;5054510;28;20171;-58
2022/09/30 01:29:31;;;;;;;24.30;17.50;;;12.60;99.90;;;;;;5045988;28;20267;-59
2022/09/30 01:32:30;;;;;;;19.90;17.48;;;12.50;99.90;;;;;;5054184;28;20603;-58
2022/09/30 01:35:03;;;;;;;21.23;16.23;;;12.50;99.90;;;;;;5039874;28;20224;-58
2022/09/30 01:37:54;;;;;;;22.98;15.60;;;12.40;99.90;;;;;;5054793;28;20175;-59
2022/09/30 01:40:27;;;;;;;21.60;15.77;;;12.40;99.90;;;;;;5047119;28;20560;-59
2022/09/30 01:43:13;;;;;;;21.55;15.95;;;12.40;99.90;;;;;;5074562;28;20670;-59
2022/09/30 01:45:57;;;;;;;23.63;16.35;;;12.30;99.90;;;;;;5046128;28;20226;-59
2022/09/30 01:48:55;;;;;;;19.63;13.88;;;12.20;99.90;;;;;;5036875;28;20537;-63
2022/09/30 01:51:26;;;;;;;25.20;17.38;;;12.20;99.90;;;;;;4991924;28;20588;-58
2022/09/30 01:54:15;;;;;;;19.13;8.48;;;12.20;99.90;;;;;;5015984;28;20274;-58
2022/09/30 01:56:48;;;;;;;11.30;7.90;;;12.10;99.90;;;;;;5052838;28;20167;-59
2022/09/30 01:59:16;;;;;;;9.95;7.40;;;12.10;99.90;;;;;;5052780;28;20185;-59
2022/09/30 02:01:53;;;;;;;9.85;7.47;;;12.20;99.90;;;;;;5045007;28;20206;-59
2022/09/30 02:04:41;;;;;;;11.45;8.27;;;12.00;99.90;;;;;;5053886;28;20222;-59
2022/09/30 02:07:12;;;;;;;10.52;8.35;;;12.00;99.90;;;;;;5037828;28;20168;-59
2022/09/30 02:09:48;;;;;;;10.95;8.40;;;12.00;99.90;;;;;;5052802;28;20167;-58
2022/09/30 02:12:19;;;;;;;10.48;8.15;;;11.90;99.90;;;;;;5047295;28;20186;-60
2022/09/30 02:14:57;;;;;;;12.75;8.63;;;11.90;99.90;;;;;;5053983;28;20176;-59
2022/09/30 02:17:28;;;;;;;13.13;8.30;;;11.90;99.90;;;;;;5053978;28;20163;-59
2022/09/30 02:19:58;;;;;;;12.68;7.60;;;11.80;99.90;;;;;;5053760;28;20225;-59
2022/09/30 02:22:42;;;;;;;12.00;7.88;;;11.80;99.90;;;;;;5047448;28;20550;-59
2022/09/30 02:25:17;;;;;;;14.27;7.88;;;11.80;99.90;;;;;;5053564;28;20175;-59
2022/09/30 02:27:48;;;;;;;11.13;8.65;;;11.70;99.90;;;;;;5036082;28;20206;-59
2022/09/30 02:30:14;;;;;;;15.35;8.82;;;11.70;99.90;;;;;;5052790;28;20262;-59
2022/09/30 02:32:47;;;;;;;14.02;8.45;;;11.70;99.90;;;;;;5034636;28;20665;-60
2022/09/30 02:35:19;;;;;;;10.27;7.57;;;11.70;99.90;;;;;;5053770;28;20641;-59
2022/09/30 02:37:53;;;;;;;11.18;7.90;;;11.60;99.90;;;;;;5053186;28;20170;-57
2022/09/30 02:40:35;;;;;;;12.00;8.02;;;11.60;99.90;;;;;;5053324;28;20615;-60
2022/09/30 02:43:04;;;;;;;11.77;7.15;;;11.60;99.90;;;;;;5049504;28;20199;-58
2022/09/30 02:45:38;;;;;;;10.45;7.75;;;11.60;99.90;;;;;;5035549;28;20270;-57
2022/09/30 02:48:28;;;;;;;9.20;6.57;;;11.60;99.90;;;;;;5053582;28;20167;-58
2022/09/30 02:51:02;;;;;;;8.20;6.65;;;11.60;99.90;;;;;;5053763;28;20171;-60
2022/09/30 02:53:42;;;;;;;8.88;7.05;;;11.50;99.90;;;;;;5044405;28;20182;-60
2022/09/30 02:56:17;;;;;;;9.65;7.65;;;11.50;99.90;;;;;;5053022;28;20164;-57
2022/09/30 02:58:45;;;;;;;9.55;7.07;;;11.50;99.90;;;;;;5053067;28;20186;-60
2022/09/30 03:01:13;;;;;;;9.73;7.20;;;11.50;99.90;;;;;;5052776;28;20179;-59
2022/09/30 03:03:56;;;;;;;10.15;7.78;;;11.40;99.90;;;;;;5045883;28;20214;-58
2022/09/30 03:06:23;;;;;;;8.77;7.05;;;11.40;99.90;;;;;;5049988;28;20187;-58
2022/09/30 03:08:50;;;;;;;9.40;6.97;;;11.40;99.90;;;;;;5052581;28;20175;-58
2022/09/30 03:11:17;;;;;;;9.43;6.70;;;11.40;99.90;;;;;;5052798;28;20682;-59
2022/09/30 03:14:05;;;;;;;10.27;7.43;;;11.40;99.90;;;;;;5050640;28;20262;-58
2022/09/30 03:16:36;;;;;;;10.65;7.38;;;11.30;99.90;;;;;;5049215;28;20171;-60
2022/09/30 03:19:14;;;;;;;9.75;6.93;;;11.30;99.90;;;;;;5033132;28;20198;-59
2022/09/30 03:22:34;;;;;;;10.77;7.07;;;11.30;99.90;;;;;;5050658;28;20198;-59
2022/09/30 03:25:17;;;;;;;7.97;6.30;;;11.30;99.90;;;;;;5019750;28;20206;-59
2022/09/30 03:27:52;;;;;;;10.73;6.82;;;11.20;99.90;;;;;;5048634;28;20589;-59
2022/09/30 03:30:20;;;;;;;11.93;7.15;;;11.20;99.90;;;;;;5051563;28;20325;-59
2022/09/30 03:33:11;;;;;;;9.63;6.60;;;11.10;99.90;;;;;;5052756;28;20187;-59
2022/09/30 03:36:01;;;;;;;7.72;6.28;;;11.10;99.90;;;;;;5052701;28;20167;-62
2022/09/30 03:38:37;;;;;;;9.30;6.75;;;11.10;99.90;;;;;;5050840;28;20587;-59
2022/09/30 03:41:29;;;;;;;8.75;6.72;;;11.10;99.90;;;;;;5059061;28;20171;-59
2022/09/30 03:44:06;;;;;;;10.00;7.18;;;11.10;99.90;;;;;;5061814;28;20184;-58
2022/09/30 03:46:55;;;;;;;8.20;6.60;;;11.00;99.90;;;;;;5052297;28;20224;-59
2022/09/30 03:49:25;;;;;;;9.05;7.28;;;11.00;99.90;;;;;;5044041;28;20261;-59
2022/09/30 03:51:53;;;;;;;9.45;7.18;;;11.00;99.90;;;;;;5052330;28;20232;-59
2022/09/30 03:54:18;;;;;;;13.07;6.70;;;11.00;99.90;;;;;;5034919;28;20575;-59
2022/09/30 03:56:44;;;;;;;8.55;7.00;;;10.90;99.90;;;;;;5034777;28;20175;-57
2022/09/30 03:59:16;;;;;;;11.43;7.22;;;11.00;99.90;;;;;;5050578;28;20194;-58
2022/09/30 04:01:42;;;;;;;10.18;7.05;;;11.00;99.90;;;;;;5051380;28;20184;-62
2022/09/30 04:04:09;;;;;;;9.85;7.38;;;11.00;99.90;;;;;;5017712;28;20227;-59
2022/09/30 04:06:34;;;;;;;8.25;6.85;;;11.00;99.90;;;;;;5051969;28;20175;-59
2022/09/30 04:09:00;;;;;;;9.35;6.95;;;11.00;99.90;;;;;;5052437;28;20258;-59
2022/09/30 04:11:26;;;;;;;8.00;6.40;;;11.10;99.90;;;;;;5051149;28;20183;-60
2022/09/30 04:13:53;;;;;;;7.40;6.47;;;11.10;99.90;;;;;;5047674;28;20183;-59
2022/09/30 04:16:18;;;;;;;10.82;6.82;;;11.10;99.90;;;;;;5033033;28;20638;-60
2022/09/30 04:18:44;;;;;;;10.35;6.82;;;11.10;99.90;;;;;;5038349;28;20183;-59
2022/09/30 04:21:12;;;;;;;8.40;6.90;;;11.10;99.90;;;;;;5055978;28;20539;-59
2022/09/30 04:23:40;;;;;;;8.13;6.82;;;11.00;99.90;;;;;;5048723;28;20631;-59
2022/09/30 04:26:09;;;;;;;7.15;6.45;;;11.10;99.90;;;;;;5055421;28;20183;-57
2022/09/30 04:28:35;;;;;;;9.57;6.85;;;11.10;99.90;;;;;;5054874;28;20183;-60
2022/09/30 04:31:02;;;;;;;9.50;6.57;;;11.10;99.90;;;;;;5054536;28;20171;-59
2022/09/30 04:33:28;;;;;;;13.18;6.75;;;11.10;99.90;;;;;;5055396;28;20214;-60
2022/09/30 04:35:56;;;;;;;12.18;7.20;;;11.10;99.90;;;;;;5041254;28;20175;-60
2022/09/30 04:38:24;;;;;;;8.98;7.00;;;11.00;99.90;;;;;;5055714;28;20186;-59
2022/09/30 04:40:55;;;;;;;9.00;7.28;;;11.00;99.90;;;;;;5060246;28;20174;-59
2022/09/30 04:43:22;;;;;;;9.00;6.72;;;11.10;99.90;;;;;;5034533;28;20191;-60
2022/09/30 04:45:48;;;;;;;11.32;7.28;;;11.10;99.90;;;;;;5027540;28;20325;-59
2022/09/30 04:48:15;;;;;;;9.77;7.63;;;11.10;99.90;;;;;;5034748;28;20223;-59
2022/09/30 04:50:42;;;;;;;10.35;7.40;;;11.10;99.90;;;;;;5042336;28;20229;-59
2022/09/30 04:53:15;;;;;;;9.25;7.75;;;11.10;99.90;;;;;;5045425;28;20208;-59
2022/09/30 04:55:42;;;;;;;10.50;8.02;;;11.10;99.90;;;;;;5063127;28;20697;-60
2022/09/30 04:58:09;;;;;;;9.70;8.30;;;11.10;99.90;;;;;;5048729;28;20178;-60
2022/09/30 05:00:34;;;;;;;9.60;8.13;;;11.10;99.90;;;;;;5038304;28;20297;-60
2022/09/30 05:03:00;;;;;;;13.25;8.52;;;11.10;99.90;;;;;;5044865;28;20604;-60
2022/09/30 05:05:26;;;;;;;11.98;7.97;;;11.10;99.90;;;;;;5053333;28;20574;-60
2022/09/30 05:07:52;;;;;;;11.20;8.68;;;11.10;99.90;;;;;;5027825;28;20192;-60
2022/09/30 05:10:17;;;;;;;9.43;8.43;;;11.10;99.90;;;;;;5053825;28;20183;-63
2022/09/30 05:12:44;;;;;;;10.13;8.10;;;11.10;99.90;;;;;;5054190;28;20215;-58
2022/09/30 05:15:10;;;;;;;11.73;8.43;;;11.10;99.90;;;;;;5054528;28;20591;-55
2022/09/30 05:17:36;;;;;;;11.27;8.30;;;11.10;99.90;;;;;;5040302;28;20183;-59
2022/09/30 05:20:03;;;;;;;9.10;7.55;;;11.20;99.90;;;;;;5029174;28;20179;-54
2022/09/30 05:22:29;;;;;;;10.25;7.05;;;11.20;99.90;;;;;;5040898;28;20195;-50
2022/09/30 05:24:57;;;;;;;7.90;7.10;;;11.20;99.90;;;;;;5034867;28;20180;-52
2022/09/30 05:27:24;;;;;;;8.85;7.40;;;11.30;99.90;;;;;;5044451;28;20190;-57
2022/09/30 05:29:50;;;;;;;10.93;7.53;;;11.30;99.90;;;;;;5041660;28;20257;-59
2022/09/30 05:32:17;;;;;;;9.10;7.82;;;11.20;99.90;;;;;;5044479;28;20246;-56
2022/09/30 05:34:42;;;;;;;9.73;8.13;;;11.30;99.90;;;;;;5045937;28;20179;-51
2022/09/30 05:37:08;;;;;;;11.63;9.10;;;11.40;99.90;;;;;;5051652;28;20195;-53
2022/09/30 05:39:34;;;;;;;10.23;8.63;;;11.40;99.90;;;;;;5042808;28;20175;-55
2022/09/30 05:42:00;;;;;;;13.55;9.18;;;11.50;99.90;;;;;;5064723;28;20182;-55
2022/09/30 05:44:26;;;;;;;12.30;9.27;;;11.50;99.90;;;;;;5051998;28;20566;-52
2022/09/30 05:46:52;;;;;;;11.85;8.75;;;11.50;99.90;;;;;;5046910;28;20215;-58
2022/09/30 05:49:17;;;;;;;12.05;9.82;;;11.50;99.90;;;;;;5052581;28;20183;-55
2022/09/30 05:51:43;;;;;;;12.82;10.30;;;11.60;99.90;;;;;;5034786;28;20306;-51
2022/09/30 05:54:10;;;;;;;13.75;9.40;;;11.50;99.90;;;;;;5034706;28;20188;-57
2022/09/30 05:56:39;;;;;;;14.50;9.63;;;11.50;99.90;;;;;;5040934;28;20711;-57
2022/09/30 05:59:06;;;;;;;15.57;9.65;;;11.50;99.90;;;;;;5042093;28;20192;-53
2022/09/30 06:01:32;;;;;;;12.07;9.15;;;11.60;99.90;;;;;;5044044;28;20207;-50
2022/09/30 06:03:57;;;;;;;10.57;8.52;;;11.60;99.90;;;;;;5037320;28;20263;-58
2022/09/30 06:06:24;;;;;;;12.52;9.38;;;11.60;99.90;;;;;;5033266;28;20179;-68
2022/09/30 06:08:49;;;;;;;11.85;9.00;;;11.60;99.90;;;;;;5046521;28;20180;-50
2022/09/30 06:11:18;;;;;;;11.05;8.65;;;11.60;99.90;;;;;;5034635;28;20225;-55
2022/09/30 06:13:46;;;;;;;9.93;7.80;;;11.60;99.90;;;;;;5029491;28;20221;-58
2022/09/30 06:16:12;;;;;;;7.72;6.47;;;11.60;99.90;;;;;;5034159;28;20268;-61
2022/09/30 06:18:40;;;;;;;7.20;4.60;;;11.60;99.90;;;;;;5047079;28;20187;-62
2022/09/30 06:21:08;;;;;;;6.93;4.50;;;11.60;99.90;;;;;;5042157;28;20194;-60
2022/09/30 06:23:35;;;;;;;6.18;4.18;;;11.60;99.90;;;;;;5034968;28;20180;-54
2022/09/30 06:26:03;;;;;;;5.93;4.32;;;11.60;99.90;;;;;;5034150;28;20176;-50
2022/09/30 06:28:28;;;;;;;11.77;4.50;;;11.60;99.90;;;;;;5035511;28;20230;-52
2022/09/30 06:30:54;;;;;;;8.00;4.32;;;11.60;99.90;;;;;;5040387;28;20546;-56
2022/09/30 06:33:20;;;;;;;7.60;4.28;;;11.50;99.90;;;;;;5038184;28;20207;-56
2022/09/30 06:35:47;;;;;;;7.20;3.85;;;11.50;99.90;;;;;;5035589;28;20183;-57
2022/09/30 06:38:17;;;;;;;6.07;4.13;;;11.50;99.90;;;;;;5024069;28;20176;-55
2022/09/30 06:40:43;;;;;;;4.70;3.70;;;11.50;99.90;;;;;;5034801;28;20191;-59
2022/09/30 06:43:10;;;;;;;5.63;3.63;;;11.50;99.90;;;;;;5042649;28;20191;-64
2022/09/30 06:45:36;;;;;;;6.13;3.90;;;11.50;99.90;;;;;;5014987;28;20176;-61
2022/09/30 06:48:04;;;;;;;4.40;3.60;;;11.50;99.90;;;;;;5033211;28;20198;-54
2022/09/30 06:50:31;;;;;;;4.93;3.35;;;11.50;99.90;;;;;;5030779;28;20777;-63
2022/09/30 06:52:59;;;;;;;4.65;3.03;;;11.50;99.90;;;;;;5028186;28;20683;-60
2022/09/30 06:55:26;;;;;;;4.43;2.58;;;11.50;99.90;;;;;;5036340;28;20211;-60
2022/09/30 06:57:52;;;;;;;6.53;2.78;;;11.50;99.90;;;;;;5018719;28;20553;-59
2022/09/30 07:00:18;;;;;;;5.15;2.22;;;11.50;99.90;;;;;;5048217;28;20183;-60
2022/09/30 07:02:44;;;;;;;4.10;2.00;;;11.60;99.90;;;;;;5045724;28;20216;-60
2022/09/30 07:05:09;;;;;;;2.65;2.00;;;11.60;99.90;;;;;;5040960;28;20191;-62
2022/09/30 07:07:35;;;;;;;3.50;2.20;;;11.60;99.90;;;;;;5021593;28;20639;-64
2022/09/30 07:10:03;;;;;;;3.70;2.40;;;11.70;99.90;;;;;;5051808;28;20214;-61
2022/09/30 07:12:29;;;;;;;3.47;2.30;;;11.80;99.90;;;;;;5036711;28;20305;-60
2022/09/30 07:14:55;;;;;;;3.10;2.13;;;11.80;99.90;;;;;;5048958;28;20183;-61
2022/09/30 07:17:21;;;;;;;3.53;2.10;;;11.90;99.90;;;;;;5051987;28;20178;-59
2022/09/30 07:19:46;;;;;;;3.08;2.00;;;11.90;99.90;;;;;;5050868;28;20232;-62
2022/09/30 07:22:31;;;;;;;2.78;2.10;;;11.90;99.90;;;;;;5044884;28;20265;-68
2022/09/30 07:25:02;;;;;;;3.58;2.03;;;12.00;99.90;;;;;;5020298;28;20233;-61
2022/09/30 07:27:30;;;;;;;2.05;1.65;;;12.00;99.90;;;;;;5052208;28;20172;-69
2022/09/30 07:29:56;;;;;;;4.68;1.80;;;12.10;99.90;;;;;;5051825;28;20187;-62
2022/09/30 07:32:22;;;;;;;2.47;1.52;;;12.20;99.90;;;;;;5046807;28;20234;-62
2022/09/30 07:34:48;;;;;;;4.95;2.00;;;12.20;99.90;;;;;;5025351;28;20206;-68
2022/09/30 07:37:17;;;;;;;3.15;1.90;;;12.20;99.90;;;;;;5032871;28;20270;-61
2022/09/30 07:39:45;;;;;;;3.65;1.70;;;12.30;99.90;;;;;;5049034;28;20179;-61
2022/09/30 07:42:12;;;;;;;2.72;2.00;;;12.30;99.90;;;;;;5067697;28;20265;-67
2022/09/30 07:44:40;;;;;;;2.10;1.80;;;12.40;99.90;;;;;;5036212;28;20321;-62
2022/09/30 07:47:08;;;;;;;5.25;2.17;;;12.40;99.90;;;;;;5032091;28;20183;-60
2022/09/30 07:49:34;;;;;;;2.50;2.00;;;12.40;99.90;;;;;;5017654;28;20186;-60
2022/09/30 07:52:00;;;;;;;3.13;1.90;;;12.40;99.90;;;;;;5036671;28;20247;-60
2022/09/30 07:54:28;;;;;;;3.40;2.47;;;12.40;99.90;;;;;;5035615;28;20211;-61
2022/09/30 07:56:55;;;;;;;4.57;2.55;;;12.40;99.90;;;;;;5054595;28;20202;-60
2022/09/30 07:59:21;;;;;;;4.32;3.00;;;12.30;99.90;;;;;;5053917;28;20632;-61
2022/09/30 08:01:47;;;;;;;4.13;3.28;;;12.40;99.90;;;;;;5052054;28;20191;-61
2022/09/30 08:04:14;;;;;;;4.78;3.40;;;12.40;99.90;;;;;;5047179;28;20235;-62
2022/09/30 08:06:50;;;;;;;5.05;3.70;;;12.40;99.90;;;;;;5036724;28;20188;-61
2022/09/30 08:09:17;;;;;;;4.75;3.90;;;12.40;99.90;;;;;;5048493;28;20183;-64
2022/09/30 08:11:44;;;;;;;5.53;4.13;;;12.40;99.90;;;;;;5044499;28;20211;-61
2022/09/30 08:14:25;;;;;;;5.43;4.30;;;12.40;99.90;;;;;;5038099;28;20190;-67
2022/09/30 08:16:51;;;;;;;5.85;4.45;;;12.40;99.90;;;;;;5034818;28;20176;-61
2022/09/30 08:19:22;;;;;;;6.25;4.72;;;12.50;99.90;;;;;;5047579;28;20237;-60
2022/09/30 08:21:49;;;;;;;7.82;4.93;;;12.50;99.90;;;;;;5056155;28;20199;-61
2022/09/30 08:24:15;;;;;;;8.38;4.78;;;12.50;99.90;;;;;;5054086;28;20228;-65
2022/09/30 08:26:41;;;;;;;7.35;4.70;;;12.50;99.90;;;;;;5019167;28;20175;-61
2022/09/30 08:29:09;;;;;;;6.10;3.90;;;12.50;99.90;;;;;;5036604;28;20192;-62
2022/09/30 08:31:35;;;;;;;5.65;3.83;;;12.50;99.90;;;;;;5048729;28;20191;-61
2022/09/30 08:34:02;;;;;;;5.45;3.67;;;12.60;99.90;;;;;;5053388;28;20527;-61
2022/09/30 08:36:27;;;;;;;3.90;3.28;;;12.60;99.90;;;;;;5034315;28;20195;-61
2022/09/30 08:38:53;;;;;;;5.75;3.53;;;12.60;99.90;;;;;;5044563;28;20188;-62
2022/09/30 08:41:41;;;;;;;4.63;3.20;;;12.70;99.90;;;;;;5052702;28;20289;-61
2022/09/30 08:44:28;;;;;;;4.50;3.45;;;12.80;99.90;;;;;;5059181;28;20674;-61
2022/09/30 08:47:11;;;;;;;5.70;3.50;;;12.80;99.90;;;;;;5034197;28;20205;-67
2022/09/30 08:50:01;;;;;;;4.47;3.95;;;12.90;99.90;;;;;;5036130;28;20326;-61
2022/09/30 08:52:38;;;;;;;8.70;4.90;;;12.90;99.90;;;;;;5035685;28;20188;-60
2022/09/30 08:55:06;;;;;;;6.28;5.45;;;13.00;99.90;;;;;;5051896;28;20186;-66
2022/09/30 08:57:37;;;;;;;10.35;6.10;;;13.00;99.90;;;;;;5037231;28;20210;-69
2022/09/30 09:00:10;;;;;;;10.98;7.70;;;13.00;99.90;;;;;;5033912;28;20176;-61
2022/09/30 09:02:56;;;;;;;9.75;7.93;;;13.10;99.90;;;;;;5048003;28;20639;-62
2022/09/30 09:05:39;;;;;;;10.05;8.18;;;13.10;99.90;;;;;;5035237;28;20234;-62
2022/09/30 09:08:30;;;;;;;11.35;8.95;;;13.10;99.90;;;;;;5037427;28;20179;-62
2022/09/30 09:11:07;;;;;;;15.15;9.82;;;13.10;99.90;;;;;;5054175;28;20264;-59
2022/09/30 09:13:42;;;;;;;12.30;9.70;;;13.20;99.90;;;;;;5044973;28;20199;-66
2022/09/30 09:16:23;;;;;;;16.63;10.82;;;13.20;99.90;;;;;;5048757;28;20182;-59
2022/09/30 09:19:14;;;;;;;15.50;10.80;;;13.10;99.90;;;;;;5054115;28;20179;-67
2022/09/30 09:21:55;;;;;;;18.23;12.30;;;13.10;99.90;;;;;;5037766;28;20172;-59
2022/09/30 09:24:24;;;;;;;19.90;12.77;;;13.10;99.90;;;;;;5039546;28;20241;-59
2022/09/30 09:26:53;;;;;;;17.00;12.80;;;13.10;99.90;;;;;;5052161;28;20543;-59
2022/09/30 09:29:37;;;;;;;18.35;12.93;;;13.10;99.90;;;;;;5051498;28;20187;-59
2022/09/30 09:32:17;;;;;;;19.90;13.45;;;13.10;99.90;;;;;;5052746;28;20205;-59
2022/09/30 09:34:56;;;;;;;17.80;13.43;;;13.10;99.90;;;;;;5041956;28;20175;-59
2022/09/30 09:40:43;;;;;;;22.55;14.65;;;13.10;99.90;;;;;;5049557;28;20179;-66
2022/09/30 09:43:15;;;;;;;19.27;14.88;;;13.10;99.90;;;;;;5060341;28;20183;-58
2022/09/30 09:46:01;;;;;;;20.92;15.85;;;13.20;99.90;;;;;;5051803;28;20183;-59
2022/09/30 09:48:29;;;;;;;26.88;18.00;;;13.20;99.90;;;;;;5051389;28;20201;-59
2022/09/30 09:51:05;;;;;;;26.55;18.70;;;13.20;99.90;;;;;;5054779;28;20175;-59
2022/09/30 09:53:43;;;;;;;24.23;17.95;;;13.30;99.90;;;;;;5053717;28;20265;-59
2022/09/30 09:56:36;;;;;;;27.30;18.45;;;13.30;99.90;;;;;;5041837;28;20343;-59
2022/09/30 09:59:12;;;;;;;32.35;18.83;;;13.40;99.90;;;;;;5032230;28;20341;-59
2022/09/30 10:01:41;;;;;;;25.45;18.92;;;13.40;99.90;;;;;;5053522;28;20262;-58
2022/09/30 10:04:17;;;;;;;25.60;20.02;;;13.50;99.90;;;;;;5053410;28;20234;-58
2022/09/30 10:06:47;;;;;;;28.33;20.55;;;13.50;99.90;;;;;;5044193;28;20602;-59
2022/09/30 10:09:35;;;;;;;27.88;20.60;;;13.40;99.90;;;;;;5047487;28;20179;-59
2022/09/30 10:12:06;;;;;;;25.42;19.70;;;13.50;99.90;;;;;;5033934;28;20561;-64
2022/09/30 10:15:00;;;;;;;29.38;22.40;;;13.50;99.90;;;;;;5035576;28;20183;-58
2022/09/30 10:17:30;;;;;;;26.75;21.10;;;13.60;99.90;;;;;;5010669;28;20233;-65
2022/09/30 10:20:06;;;;;;;26.33;20.33;;;13.70;99.90;;;;;;5037455;28;20211;-64
2022/09/30 10:22:34;;;;;;;30.08;20.08;;;13.90;99.90;;;;;;5037363;28;20262;-58
2022/09/30 10:25:21;;;;;;;30.75;20.00;;;14.10;99.90;;;;;;5020472;28;20179;-59
2022/09/30 10:27:52;;;;;;;25.67;19.13;;;14.20;99.90;;;;;;5051301;28;20274;-59
2022/09/30 10:30:29;;;;;;;19.17;14.32;;;14.40;99.90;;;;;;5044135;28;20210;-58
2022/09/30 10:32:55;;;;;;;19.90;13.18;;;14.50;99.90;;;;;;5022969;28;20210;-59
2022/09/30 10:35:22;;;;;;;20.10;15.35;;;14.70;99.90;;;;;;5051315;28;20183;-58
2022/09/30 10:37:53;;;;;;;10.23;5.38;;;14.90;99.90;;;;;;5035510;28;20552;-58
2022/09/30 10:40:26;;;;;;;10.70;5.18;;;15.20;99.90;;;;;;5053509;28;20190;-59
2022/09/30 10:42:52;;;;;;;5.53;3.05;;;15.40;99.90;;;;;;5052119;28;20190;-60
2022/09/30 10:45:32;;;;;;;4.82;2.88;;;15.60;99.90;;;;;;5039831;28;20195;-58
2022/09/30 10:48:02;;;;;;;4.07;1.80;;;15.80;99.90;;;;;;5049662;28;20171;-59
2022/09/30 10:50:28;;;;;;;4.18;1.80;;;16.00;99.90;;;;;;5053283;28;20263;-59
2022/09/30 10:53:03;;;;;;;4.50;1.90;;;16.00;99.90;;;;;;5029844;28;20219;-59
2022/09/30 10:55:40;;;;;;;2.05;1.30;;;16.00;99.90;;;;;;5046772;28;20183;-61
2022/09/30 10:58:34;;;;;;;1.92;1.38;;;16.00;99.90;;;;;;5044540;28;20186;-68
2022/09/30 11:01:31;;;;;;;4.05;1.70;;;15.90;99.90;;;;;;5051299;28;20207;-58
2022/09/30 11:03:57;;;;;;;5.57;1.52;;;15.80;99.90;;;;;;5052126;28;20219;-59
2022/09/30 11:06:23;;;;;;;3.60;1.40;;;15.70;99.90;;;;;;5052691;28;20182;-69
2022/09/30 11:09:00;;;;;;;3.08;1.58;;;15.60;99.90;;;;;;5040248;28;20210;-61
2022/09/30 11:11:36;;;;;;;1.52;1.08;;;15.60;99.90;;;;;;5052915;28;20289;-59
2022/09/30 11:14:21;;;;;;;2.83;1.17;;;15.50;99.90;;;;;;5051730;28;20306;-60
2022/09/30 11:16:59;;;;;;;2.53;1.42;;;15.40;99.90;;;;;;5053132;28;20258;-59
2022/09/30 11:19:47;;;;;;;3.63;1.20;;;15.40;99.90;;;;;;5039447;28;20220;-66
2022/09/30 11:22:31;;;;;;;2.20;1.08;;;15.40;99.90;;;;;;5041466;28;20261;-61
2022/09/30 11:24:57;;;;;;;2.60;1.20;;;15.40;99.90;;;;;;5051938;28;20678;-59
2022/09/30 11:27:33;;;;;;;3.35;0.90;;;15.50;99.90;;;;;;5052474;28;20185;-59
2022/09/30 11:30:26;;;;;;;4.90;1.20;;;15.70;99.90;;;;;;5037825;28;20577;-70
2022/09/30 11:33:26;;;;;;;3.90;1.13;;;15.80;99.90;;;;;;5039066;28;20195;-59
2022/09/30 11:36:14;;;;;;;1.98;1.00;;;16.00;99.90;;;;;;5053728;28;20186;-59
2022/09/30 11:39:02;;;;;;;3.38;1.27;;;16.10;99.90;;;;;;5051347;28;20546;-59
2022/09/30 11:41:39;;;;;;;3.00;1.00;;;16.20;99.90;;;;;;5042096;28;20187;-59
2022/09/30 11:44:33;;;;;;;3.20;1.00;;;16.30;99.90;;;;;;5039077;28;20249;-64
2022/09/30 11:47:19;;;;;;;5.32;1.00;;;16.40;99.90;;;;;;5039229;28;20262;-59
2022/09/30 11:50:00;;;;;;;3.85;0.88;;;16.50;99.90;;;;;;5054142;28;20201;-61
2022/09/30 11:52:34;;;;;;;1.73;0.93;;;16.60;99.90;;;;;;5048670;28;20211;-59
2022/09/30 11:55:28;;;;;;;1.42;0.80;;;16.80;99.90;;;;;;5052139;28;20179;-59
2022/09/30 11:58:04;;;;;;;4.25;0.75;;;16.80;99.90;;;;;;5034383;28;20615;-59
2022/09/30 12:00:35;;;;;;;3.15;1.10;;;16.80;99.90;;;;;;5052802;28;20175;-58
2022/09/30 12:03:11;;;;;;;4.28;0.80;;;16.80;99.90;;;;;;5028325;28;20226;-59
2022/09/30 12:05:44;;;;;;;3.63;0.90;;;16.80;99.90;;;;;;5044683;28;20189;-58
2022/09/30 12:08:16;;;;;;;3.03;0.80;;;16.70;99.90;;;;;;5051986;28;20695;-58
2022/09/30 12:11:21;;;;;;;5.22;1.27;;;16.70;99.90;;;;;;5051278;28;20583;-59
2022/09/30 12:13:56;;;;;;;8.43;1.60;;;16.70;99.90;;;;;;5046154;28;20221;-58
2022/09/30 12:16:25;;;;;;;3.92;1.50;;;16.90;99.90;;;;;;5037733;28;20198;-58
2022/09/30 12:18:58;;;;;;;5.30;1.70;;;16.90;99.90;;;;;;5048995;28;20274;-58
2022/09/30 12:21:31;;;;;;;6.20;1.83;;;17.00;99.90;;;;;;5033229;28;20205;-59
2022/09/30 12:24:19;;;;;;;3.85;1.85;;;17.00;99.90;;;;;;5050385;28;20182;-59
2022/09/30 12:26:46;;;;;;;3.00;1.42;;;17.00;99.90;;;;;;5039585;28;20495;-59
2022/09/30 12:32:32;;;;;;;3.05;1.20;;;17.10;99.90;;;;;;5049814;28;20207;-60
2022/09/30 12:35:00;;;;;;;4.72;1.35;;;17.30;99.90;;;;;;5034748;28;20165;-58
2022/09/30 12:37:35;;;;;;;4.97;1.50;;;17.40;99.90;;;;;;5037562;28;20172;-58
2022/09/30 12:40:38;;;;;;;3.40;1.20;;;17.50;99.90;;;;;;5050297;28;20170;-59
2022/09/30 12:43:13;;;;;;;2.35;1.08;;;17.60;99.90;;;;;;5039115;28;20215;-67
2022/09/30 12:45:51;;;;;;;4.97;1.30;;;17.60;99.90;;;;;;5055505;28;20182;-58
2022/09/30 12:48:20;;;;;;;2.97;1.33;;;17.60;99.90;;;;;;5042554;28;20316;-66
2022/09/30 12:50:56;;;;;;;2.53;1.30;;;17.70;99.90;;;;;;5026320;28;20186;-59
2022/09/30 12:53:29;;;;;;;4.47;1.15;;;17.70;99.90;;;;;;5056085;28;20198;-60
2022/09/30 12:56:04;;;;;;;4.35;1.58;;;17.70;99.90;;;;;;5056076;28;20164;-59
2022/09/30 12:58:37;;;;;;;4.57;1.63;;;17.80;99.90;;;;;;5053000;28;20211;-61
2022/09/30 13:01:21;;;;;;;4.05;1.73;;;18.00;99.90;;;;;;5040291;28;20190;-62
2022/09/30 13:04:15;;;;;;;7.15;2.20;;;18.10;99.90;;;;;;5052605;28;20230;-58
2022/09/30 13:06:43;;;;;;;4.60;2.42;;;18.20;99.90;;;;;;5020752;28;20183;-62
2022/09/30 13:09:15;;;;;;;9.05;2.40;;;18.20;99.90;;;;;;5034698;28;20182;-60
2022/09/30 13:11:46;;;;;;;6.43;2.53;;;18.10;99.90;;;;;;5055088;28;20236;-59
2022/09/30 13:14:42;;;;;;;9.20;2.53;;;18.00;99.90;;;;;;5054627;28;20187;-59
2022/09/30 13:17:08;;;;;;;6.45;2.45;;;17.90;99.90;;;;;;5036035;28;20231;-67